Time;durP1;ratioP1;P1;durP2;ratioP2;P2;SDS_P1;SDS_P2;PMS_P1;PMS_P2;Temp;Humidity;BMP_temperature;BMP_pressure;BME280_temperature;BME280_humidity;BME280_pressure;Samples;Min_cycle;Max_cycle;Signal;HPM_P1;HPM_P2
2022/04/16 04:01:59;;;;;;;3.58;2.40;;;6.20;99.90;;;;;;6247198;22;20021;-75
2022/04/16 04:04:24;;;;;;;3.58;2.95;;;6.30;99.90;;;;;;6252125;22;20499;-76
2022/04/16 04:06:49;;;;;;;3.58;2.70;;;6.40;99.90;;;;;;6252328;22;20047;-75
2022/04/16 04:09:15;;;;;;;4.18;3.25;;;6.40;99.90;;;;;;6252033;22;20005;-76
2022/04/16 04:11:41;;;;;;;3.55;3.20;;;6.50;99.90;;;;;;6252159;22;20079;-76
2022/04/16 04:14:06;;;;;;;3.78;3.28;;;6.50;99.90;;;;;;6225610;22;21330;-75
2022/04/16 04:16:33;;;;;;;5.68;3.42;;;6.60;99.90;;;;;;6252102;22;20488;-75
2022/04/16 04:18:58;;;;;;;3.50;2.75;;;6.70;99.90;;;;;;6224905;22;20024;-76
2022/04/16 04:21:24;;;;;;;4.15;3.30;;;6.70;99.90;;;;;;6252064;22;20088;-76
2022/04/16 04:23:49;;;;;;;3.55;2.90;;;6.80;99.90;;;;;;6252273;22;20013;-76
2022/04/16 04:26:14;;;;;;;3.33;2.80;;;6.70;99.90;;;;;;6225116;22;20791;-76
2022/04/16 04:28:40;;;;;;;3.22;2.92;;;6.80;99.90;;;;;;6224635;22;20009;-75
2022/04/16 04:31:10;;;;;;;3.90;2.92;;;6.80;99.90;;;;;;6225123;22;20001;-76
2022/04/16 04:33:35;;;;;;;3.83;3.03;;;6.80;99.90;;;;;;6252164;22;20028;-76
2022/04/16 04:36:01;;;;;;;3.38;2.95;;;6.80;99.90;;;;;;6251970;22;20429;-76
2022/04/16 04:38:26;;;;;;;3.78;2.83;;;6.80;99.90;;;;;;6224762;22;20012;-76
2022/04/16 04:40:52;;;;;;;4.43;3.15;;;6.90;99.90;;;;;;6252236;22;20015;-75
2022/04/16 04:43:18;;;;;;;3.72;2.90;;;7.00;99.90;;;;;;6252146;22;20000;-76
2022/04/16 04:45:46;;;;;;;4.88;3.10;;;7.00;99.90;;;;;;6251947;22;20011;-75
2022/04/16 04:48:11;;;;;;;3.72;2.80;;;7.10;99.90;;;;;;6224492;22;20005;-76
2022/04/16 04:50:37;;;;;;;3.40;2.90;;;7.20;99.90;;;;;;6251577;22;20013;-75
2022/04/16 04:53:02;;;;;;;3.50;2.83;;;7.20;99.90;;;;;;6252022;22;20016;-76
2022/04/16 04:55:29;;;;;;;5.00;3.03;;;7.30;99.90;;;;;;6251956;22;20075;-76
2022/04/16 04:57:55;;;;;;;3.88;3.13;;;7.30;99.90;;;;;;6251490;22;20368;-75
2022/04/16 05:00:21;;;;;;;4.07;2.97;;;7.30;99.90;;;;;;6251581;22;20005;-76
2022/04/16 05:02:47;;;;;;;3.72;3.20;;;7.40;99.90;;;;;;6251633;22;20008;-76
2022/04/16 05:05:14;;;;;;;6.93;3.20;;;7.40;99.90;;;;;;6252010;22;20433;-75
2022/04/16 05:07:40;;;;;;;6.63;3.63;;;7.40;99.90;;;;;;6224564;22;20481;-75
2022/04/16 05:10:06;;;;;;;5.80;3.45;;;7.40;99.90;;;;;;6251687;22;20012;-76
2022/04/16 05:12:32;;;;;;;6.15;3.90;;;7.40;99.90;;;;;;6251727;22;20024;-75
2022/04/16 05:14:58;;;;;;;5.25;4.20;;;7.40;99.90;;;;;;6251622;22;20007;-76
2022/04/16 05:17:23;;;;;;;5.30;3.88;;;7.40;99.90;;;;;;6252329;22;20019;-76
2022/04/16 05:19:49;;;;;;;5.65;3.97;;;7.40;99.90;;;;;;6253023;22;20006;-76
2022/04/16 05:22:14;;;;;;;5.25;4.07;;;7.50;99.90;;;;;;6252908;22;20435;-75
2022/04/16 05:24:40;;;;;;;5.32;4.15;;;7.40;99.90;;;;;;6253132;22;20054;-75
2022/04/16 05:27:05;;;;;;;5.20;4.07;;;7.50;99.90;;;;;;6225996;22;20009;-76
2022/04/16 05:29:48;;;;;;;4.88;4.05;;;7.50;99.90;;;;;;6252828;22;20007;-76
2022/04/16 05:32:16;;;;;;;6.05;4.00;;;7.60;99.90;;;;;;6252787;22;20067;-76
2022/04/16 05:34:42;;;;;;;4.30;3.70;;;7.70;99.90;;;;;;6225884;22;20009;-76
2022/04/16 05:37:07;;;;;;;4.63;3.75;;;7.70;99.90;;;;;;6252920;22;20087;-76
2022/04/16 05:39:33;;;;;;;4.47;3.90;;;7.70;99.90;;;;;;6252883;22;20003;-76
2022/04/16 05:41:58;;;;;;;7.13;4.00;;;7.80;99.90;;;;;;6252756;22;20016;-76
2022/04/16 05:44:24;;;;;;;6.25;4.15;;;7.80;99.90;;;;;;6252910;22;20020;-76
2022/04/16 05:46:49;;;;;;;4.82;4.10;;;8.00;99.90;;;;;;6253074;22;20008;-76
2022/04/16 05:49:15;;;;;;;5.50;4.00;;;8.00;99.90;;;;;;6252793;22;20068;-76
2022/04/16 05:51:41;;;;;;;5.88;3.75;;;8.10;99.90;;;;;;6252862;22;20043;-76
2022/04/16 05:54:06;;;;;;;4.65;3.60;;;8.20;99.90;;;;;;6253207;22;20001;-76
2022/04/16 05:56:34;;;;;;;4.82;3.45;;;8.30;99.90;;;;;;6252915;22;20013;-76
2022/04/16 05:59:00;;;;;;;4.80;3.97;;;8.30;99.90;;;;;;6225396;22;20084;-76
2022/04/16 06:01:26;;;;;;;5.13;3.65;;;8.40;99.90;;;;;;6252714;22;20070;-76
2022/04/16 06:03:52;;;;;;;5.40;3.53;;;8.40;99.90;;;;;;6252878;22;20005;-76
2022/04/16 06:06:18;;;;;;;4.25;3.72;;;8.50;99.90;;;;;;6252928;22;20012;-76
2022/04/16 06:08:43;;;;;;;6.47;4.22;;;8.50;99.90;;;;;;6252731;22;20437;-76
2022/04/16 06:11:11;;;;;;;4.38;3.58;;;8.40;99.90;;;;;;6252629;22;20388;-76
2022/04/16 06:13:36;;;;;;;6.88;4.07;;;8.60;99.90;;;;;;6252838;22;20000;-76
2022/04/16 06:16:02;;;;;;;4.80;3.95;;;8.60;99.90;;;;;;6253057;22;20433;-76
2022/04/16 06:18:28;;;;;;;5.75;4.18;;;8.60;99.90;;;;;;6252578;22;20432;-76
2022/04/16 06:20:56;;;;;;;5.32;4.28;;;8.70;99.90;;;;;;6225705;22;20039;-76
2022/04/16 06:23:21;;;;;;;5.93;3.92;;;8.70;99.90;;;;;;6252952;22;20455;-76
2022/04/16 06:25:47;;;;;;;7.32;4.15;;;8.80;99.90;;;;;;6252926;22;20039;-76
2022/04/16 06:28:12;;;;;;;6.70;4.55;;;8.70;99.90;;;;;;6252581;22;20429;-76
2022/04/16 06:30:38;;;;;;;6.50;4.93;;;8.80;99.90;;;;;;6252811;22;20027;-76
2022/04/16 06:33:04;;;;;;;5.82;4.75;;;8.80;99.90;;;;;;6225700;22;20019;-76
2022/04/16 06:35:29;;;;;;;9.55;4.95;;;8.80;99.90;;;;;;6225900;22;20091;-76
2022/04/16 06:37:55;;;;;;;7.05;4.80;;;8.80;99.90;;;;;;6252474;22;20388;-76
2022/04/16 06:40:21;;;;;;;6.70;4.65;;;8.90;99.90;;;;;;6252608;22;20020;-76
2022/04/16 06:42:47;;;;;;;7.55;4.68;;;9.00;99.90;;;;;;6252692;22;20006;-76
2022/04/16 06:45:13;;;;;;;6.68;4.82;;;9.00;99.90;;;;;;6252990;22;20091;-76
2022/04/16 06:47:39;;;;;;;7.07;5.05;;;9.20;99.90;;;;;;6225849;22;20392;-77
2022/04/16 06:50:06;;;;;;;7.30;5.07;;;9.20;99.90;;;;;;6252603;22;20005;-77
2022/04/16 06:52:31;;;;;;;10.20;5.80;;;9.30;99.90;;;;;;6252847;22;20044;-77
2022/04/16 06:54:58;;;;;;;7.30;5.57;;;9.30;99.90;;;;;;6226001;22;20009;-77
2022/04/16 06:57:24;;;;;;;7.20;5.45;;;9.40;99.90;;;;;;6252918;22;20016;-77
2022/04/16 06:59:50;;;;;;;7.85;6.00;;;9.50;99.90;;;;;;6252639;22;20008;-77
2022/04/16 07:02:16;;;;;;;9.27;6.40;;;9.60;99.90;;;;;;6253181;22;20329;-78
2022/04/16 07:04:41;;;;;;;7.75;6.00;;;9.70;99.90;;;;;;6253585;22;20011;-78
2022/04/16 07:07:10;;;;;;;7.65;5.97;;;9.70;99.90;;;;;;6255427;22;20012;-78
2022/04/16 07:09:40;;;;;;;10.02;6.18;;;9.90;99.90;;;;;;6225915;22;20039;-78
2022/04/16 07:12:10;;;;;;;7.15;5.13;;;10.00;99.90;;;;;;6253311;22;20012;-78
2022/04/16 07:14:39;;;;;;;7.25;5.88;;;10.00;99.90;;;;;;6227020;22;20009;-76
2022/04/16 07:17:05;;;;;;;6.85;5.70;;;10.00;99.90;;;;;;6226607;22;20460;-80
2022/04/16 07:19:32;;;;;;;7.15;5.85;;;10.10;99.90;;;;;;6228010;22;20016;-79
2022/04/16 07:21:58;;;;;;;9.23;6.53;;;10.00;99.90;;;;;;6255585;22;20427;-80
2022/04/16 07:24:27;;;;;;;7.90;6.20;;;10.10;99.90;;;;;;6256867;22;19997;-79
2022/04/16 07:26:56;;;;;;;8.68;6.68;;;10.10;99.90;;;;;;6255916;22;20063;-79
2022/04/16 07:29:24;;;;;;;9.30;6.72;;;10.20;99.90;;;;;;6229009;22;20016;-82
2022/04/16 07:31:49;;;;;;;9.15;6.70;;;10.20;99.90;;;;;;6231267;22;20004;-81
2022/04/16 07:34:15;;;;;;;9.02;7.22;;;10.30;99.90;;;;;;6231541;22;20005;-80
2022/04/16 07:36:42;;;;;;;11.13;7.55;;;10.30;99.90;;;;;;6257369;22;20015;-82
2022/04/16 07:39:08;;;;;;;10.27;7.72;;;10.20;99.90;;;;;;6257650;22;20103;-83
2022/04/16 07:41:33;;;;;;;12.45;8.30;;;10.20;99.90;;;;;;6231156;22;20452;-80
2022/04/16 07:44:03;;;;;;;11.50;8.52;;;10.10;99.90;;;;;;6231326;22;20011;-81
2022/04/16 07:46:30;;;;;;;10.30;8.05;;;10.10;99.90;;;;;;6231721;22;20481;-81
2022/04/16 07:48:58;;;;;;;11.38;7.72;;;10.10;99.90;;;;;;6230648;22;20023;-82
2022/04/16 07:51:25;;;;;;;10.68;7.70;;;10.20;99.90;;;;;;6230162;22;20083;-81
2022/04/16 07:53:52;;;;;;;9.88;8.13;;;10.30;99.90;;;;;;6259901;22;20321;-80
2022/04/16 07:56:17;;;;;;;13.00;8.25;;;10.50;99.90;;;;;;6233730;22;20011;-81
2022/04/16 07:58:43;;;;;;;10.52;7.65;;;10.80;99.90;;;;;;6234508;22;20091;-78
2022/04/16 08:01:08;;;;;;;11.30;7.97;;;11.00;99.90;;;;;;6256052;22;20005;-79
2022/04/16 08:03:34;;;;;;;11.77;8.65;;;10.80;99.90;;;;;;6254236;22;20022;-77
2022/04/16 08:05:59;;;;;;;11.27;8.63;;;11.30;99.90;;;;;;6254277;22;20004;-80
2022/04/16 08:08:25;;;;;;;10.23;7.80;;;11.20;99.90;;;;;;6253659;22;20012;-82
2022/04/16 08:10:51;;;;;;;11.43;8.63;;;11.60;99.90;;;;;;6253442;22;20008;-80
2022/04/16 08:13:18;;;;;;;10.70;7.68;;;11.70;99.90;;;;;;6225911;22;20906;-78
2022/04/16 08:15:45;;;;;;;10.07;7.43;;;11.80;99.90;;;;;;6254770;22;20475;-79
2022/04/16 08:18:11;;;;;;;11.05;7.93;;;12.10;99.90;;;;;;6253727;22;20013;-78
2022/04/16 08:20:37;;;;;;;10.60;7.80;;;12.30;99.90;;;;;;6253288;22;20335;-79
2022/04/16 08:23:06;;;;;;;9.95;7.43;;;12.40;99.90;;;;;;6253276;22;20015;-79
2022/04/16 08:28:02;;;;;;;10.23;6.68;;;12.40;99.90;;;;;;6252365;22;20024;-78
2022/04/16 08:30:28;;;;;;;10.20;7.22;;;12.90;99.90;;;;;;6255602;22;20031;-77
2022/04/16 08:32:53;;;;;;;11.68;7.13;;;13.10;99.90;;;;;;6253904;22;20356;-78
2022/04/16 08:35:20;;;;;;;8.80;6.53;;;13.20;99.90;;;;;;6253013;22;20007;-78
2022/04/16 08:37:47;;;;;;;8.15;6.13;;;13.50;99.90;;;;;;6254709;22;20013;-79
2022/04/16 08:40:14;;;;;;;8.40;6.40;;;13.20;99.90;;;;;;6255105;22;20045;-80
2022/04/16 08:42:41;;;;;;;8.52;6.22;;;13.30;99.90;;;;;;6254779;22;20723;-78
2022/04/16 08:45:09;;;;;;;6.78;5.53;;;13.40;99.90;;;;;;6226713;22;20040;-79
2022/04/16 08:47:35;;;;;;;8.50;6.13;;;13.10;99.90;;;;;;6228369;22;20103;-78
2022/04/16 08:50:03;;;;;;;9.07;6.03;;;12.80;99.90;;;;;;6254421;22;20009;-78
2022/04/16 08:52:31;;;;;;;9.23;6.32;;;12.70;99.90;;;;;;6228206;22;20008;-78
2022/04/16 08:54:58;;;;;;;8.88;6.45;;;13.00;99.90;;;;;;6256003;22;20075;-78
2022/04/16 08:57:24;;;;;;;8.88;6.32;;;13.10;99.70;;;;;;6229495;22;20027;-78
2022/04/16 08:59:53;;;;;;;6.43;5.20;;;13.20;99.40;;;;;;6256411;22;20001;-78
2022/04/16 09:02:20;;;;;;;7.45;6.00;;;13.30;99.40;;;;;;6250677;22;20087;-78
2022/04/16 09:04:46;;;;;;;7.80;6.22;;;13.30;98.60;;;;;;6255265;22;20001;-78
2022/04/16 09:07:12;;;;;;;7.68;5.82;;;13.50;99.80;;;;;;6253239;22;20490;-78
2022/04/16 09:09:37;;;;;;;9.02;5.90;;;13.40;98.30;;;;;;6253867;22;20009;-78
2022/04/16 09:12:14;;;;;;;7.03;5.40;;;14.20;98.10;;;;;;6253886;22;20084;-78
2022/04/16 09:14:44;;;;;;;7.97;5.68;;;13.70;97.20;;;;;;6256058;22;20008;-78
2022/04/16 09:17:16;;;;;;;6.85;5.25;;;13.50;97.90;;;;;;6254101;22;20016;-78
2022/04/16 09:19:43;;;;;;;5.95;4.65;;;14.10;96.60;;;;;;6255117;22;20013;-78
2022/04/16 09:22:09;;;;;;;5.55;4.72;;;14.80;95.80;;;;;;6257653;22;20019;-78
2022/04/16 09:24:45;;;;;;;5.88;4.60;;;14.80;94.30;;;;;;6255543;22;20968;-78
2022/04/16 09:27:10;;;;;;;5.57;4.43;;;15.10;94.40;;;;;;6256143;22;20008;-78
2022/04/16 09:29:36;;;;;;;5.95;4.70;;;15.20;93.50;;;;;;6256922;22;20005;-78
2022/04/16 09:32:02;;;;;;;7.18;4.30;;;15.00;93.70;;;;;;6255262;22;20100;-78
2022/04/16 09:34:28;;;;;;;5.22;4.30;;;14.80;92.80;;;;;;6258428;22;20112;-78
2022/04/16 09:36:54;;;;;;;5.75;4.28;;;14.70;93.30;;;;;;6258232;22;20563;-78
2022/04/16 09:39:25;;;;;;;5.82;4.07;;;14.70;93.80;;;;;;6258366;22;20036;-79
2022/04/16 09:41:54;;;;;;;5.28;3.90;;;15.30;93.70;;;;;;6260411;22;20016;-78
2022/04/16 09:44:25;;;;;;;4.88;3.70;;;14.50;93.50;;;;;;6259457;22;20005;-78
2022/04/16 09:46:55;;;;;;;4.50;3.50;;;14.70;92.90;;;;;;6265636;22;20023;-78
2022/04/16 09:49:21;;;;;;;5.72;3.42;;;14.80;92.10;;;;;;6258923;22;20032;-78
2022/04/16 09:51:49;;;;;;;4.47;3.55;;;14.80;91.50;;;;;;6263713;22;20023;-78
2022/04/16 09:54:16;;;;;;;4.95;2.88;;;14.60;91.10;;;;;;6254263;22;20078;-79
2022/04/16 09:56:47;;;;;;;4.25;2.70;;;14.30;92.30;;;;;;6254692;22;20091;-78
2022/04/16 09:59:14;;;;;;;4.93;3.70;;;14.60;91.30;;;;;;6254206;22;20092;-78
2022/04/16 10:01:46;;;;;;;4.60;3.17;;;15.10;90.90;;;;;;6254121;22;20012;-78
2022/04/16 10:04:19;;;;;;;3.65;2.88;;;15.30;90.60;;;;;;6254967;22;20009;-78
2022/04/16 10:06:47;;;;;;;3.92;3.17;;;15.60;89.70;;;;;;6257455;22;20825;-79
2022/04/16 10:09:17;;;;;;;3.83;2.60;;;15.40;88.60;;;;;;6253493;22;20514;-78
2022/04/16 10:15:17;;;;;;;4.47;3.10;;;15.60;89.10;;;;;;6303170;22;20370;-79
2022/04/16 10:18:02;;;;;;;4.50;3.50;;;15.40;89.10;;;;;;6313062;22;20016;-78
2022/04/16 10:20:28;;;;;;;4.75;3.78;;;14.90;90.30;;;;;;6315754;22;20006;-80
2022/04/16 10:22:58;;;;;;;5.18;3.90;;;15.10;90.30;;;;;;6313197;22;20008;-80
2022/04/16 10:25:34;;;;;;;6.97;3.50;;;15.30;90.00;;;;;;6315124;22;20004;-80
2022/04/16 10:28:08;;;;;;;6.75;3.90;;;15.80;90.30;;;;;;6311535;22;20031;-79
2022/04/16 10:30:39;;;;;;;4.72;3.80;;;16.40;84.90;;;;;;6313076;22;20008;-80
2022/04/16 10:33:19;;;;;;;4.82;3.85;;;16.40;84.60;;;;;;6314389;22;20069;-78
2022/04/16 10:35:50;;;;;;;3.80;3.17;;;16.20;84.30;;;;;;6312904;22;20069;-80
2022/04/16 10:38:23;;;;;;;4.78;3.70;;;15.50;84.60;;;;;;6314804;22;20016;-81
2022/04/16 10:41:22;;;;;;;3.50;2.85;;;15.20;87.80;;;;;;6314718;22;20004;-82
2022/04/16 10:43:57;;;;;;;6.63;3.50;;;15.10;83.50;;;;;;6306414;22;20039;-81
2022/04/16 10:46:22;;;;;;;4.50;3.30;;;15.50;85.30;;;;;;6313368;22;20004;-81
2022/04/16 10:48:49;;;;;;;4.13;3.38;;;15.70;81.40;;;;;;6315949;22;20011;-82
2022/04/16 10:51:21;;;;;;;4.05;3.13;;;16.60;81.70;;;;;;6315358;22;20451;-81
2022/04/16 10:53:50;;;;;;;4.30;3.13;;;17.20;80.20;;;;;;6316304;22;20004;-81
2022/04/16 10:56:20;;;;;;;6.20;3.05;;;17.30;77.60;;;;;;6318760;22;20769;-81
2022/04/16 10:58:59;;;;;;;3.90;2.78;;;17.60;75.50;;;;;;6318477;22;20502;-79
2022/04/16 11:01:26;;;;;;;4.57;3.45;;;18.10;75.20;;;;;;6313979;22;20004;-79
2022/04/16 11:03:55;;;;;;;4.70;3.90;;;17.40;75.50;;;;;;6315130;22;20094;-80
2022/04/16 11:06:35;;;;;;;4.00;3.60;;;16.30;80.80;;;;;;6315142;22;20091;-79
2022/04/16 11:09:01;;;;;;;7.60;3.65;;;16.00;81.10;;;;;;6312897;22;20491;-80
2022/04/16 11:11:26;;;;;;;4.05;2.90;;;15.70;83.10;;;;;;6313548;22;20042;-77
2022/04/16 11:13:52;;;;;;;4.75;3.22;;;16.10;80.50;;;;;;6313995;22;20039;-78
2022/04/16 11:16:22;;;;;;;4.80;2.80;;;16.70;78.60;;;;;;6314301;22;20046;-79
2022/04/16 11:18:51;;;;;;;4.53;3.30;;;17.10;78.70;;;;;;6314752;22;20439;-78
2022/04/16 11:21:20;;;;;;;5.25;3.75;;;17.50;73.40;;;;;;6314643;22;20011;-78
2022/04/16 11:23:51;;;;;;;4.90;3.67;;;17.70;74.10;;;;;;6313911;22;20008;-80
2022/04/16 11:34:42;;;;;;;4.88;3.75;;;16.80;74.40;;;;;;6314587;22;20077;-79
2022/04/16 11:37:08;;;;;;;5.57;4.05;;;16.40;74.50;;;;;;6314481;22;20012;-77
2022/04/16 11:39:37;;;;;;;5.78;4.28;;;16.10;76.80;;;;;;6314750;22;20004;-77
2022/04/16 11:42:10;;;;;;;4.22;3.75;;;15.50;79.10;;;;;;6315074;22;20007;-79
2022/04/16 11:44:41;;;;;;;5.80;4.15;;;15.20;80.00;;;;;;6315657;22;20011;-82
2022/04/16 11:47:19;;;;;;;5.00;4.13;;;15.20;81.10;;;;;;6316078;22;20000;-78
2022/04/16 11:49:53;;;;;;;5.75;4.47;;;15.50;80.50;;;;;;6314972;22;20014;-78
2022/04/16 11:52:33;;;;;;;5.10;4.10;;;15.60;80.80;;;;;;6314076;22;20012;-80
2022/04/16 11:55:06;;;;;;;5.07;3.90;;;16.10;78.90;;;;;;6315313;22;20430;-77
2022/04/16 11:57:33;;;;;;;5.82;4.38;;;16.00;78.60;;;;;;6315855;22;20459;-77
2022/04/16 12:00:04;;;;;;;5.18;3.75;;;16.40;76.20;;;;;;6317099;22;20027;-80
2022/04/16 12:02:38;;;;;;;4.38;3.55;;;16.40;78.00;;;;;;6314685;22;20008;-80
2022/04/16 12:05:07;;;;;;;4.30;3.63;;;16.60;78.10;;;;;;6314667;22;20004;-77
2022/04/16 12:07:33;;;;;;;4.70;3.50;;;16.50;76.40;;;;;;6313475;22;20008;-77
2022/04/16 12:10:02;;;;;;;3.33;2.95;;;16.30;76.90;;;;;;6313863;22;20829;-76
2022/04/16 12:12:28;;;;;;;3.15;2.80;;;16.00;77.10;;;;;;6313459;22;20459;-77
2022/04/16 12:14:54;;;;;;;4.10;2.85;;;15.90;78.80;;;;;;6314435;22;20004;-78
2022/04/16 12:17:31;;;;;;;4.35;3.40;;;16.50;76.70;;;;;;6314960;22;20354;-77
2022/04/16 12:20:05;;;;;;;7.18;3.30;;;16.80;77.60;;;;;;6316387;22;19991;-81
2022/04/16 12:22:46;;;;;;;6.68;3.33;;;16.80;75.60;;;;;;6317567;22;20090;-77
2022/04/16 12:25:16;;;;;;;3.33;2.70;;;17.00;72.80;;;;;;6316101;22;20011;-81
2022/04/16 12:27:56;;;;;;;3.30;3.00;;;17.40;74.90;;;;;;6316482;22;20029;-82
2022/04/16 12:30:24;;;;;;;3.38;2.60;;;17.10;71.80;;;;;;6315211;22;20004;-78
2022/04/16 12:32:55;;;;;;;5.38;3.20;;;17.00;71.40;;;;;;6312543;22;20004;-79
2022/04/16 12:35:21;;;;;;;4.45;3.20;;;16.80;74.60;;;;;;6312209;22;20008;-78
2022/04/16 12:37:47;;;;;;;4.35;2.90;;;16.60;74.40;;;;;;6314286;22;20008;-84
2022/04/16 12:40:13;;;;;;;3.92;2.78;;;16.70;72.50;;;;;;6315666;22;20004;-79
2022/04/16 12:42:38;;;;;;;4.18;3.25;;;17.10;73.80;;;;;;6313943;22;20007;-78
2022/04/16 12:45:04;;;;;;;3.97;3.15;;;17.10;71.60;;;;;;6314270;22;20007;-78
2022/04/16 12:47:30;;;;;;;3.50;3.08;;;16.90;73.40;;;;;;6312717;22;20011;-77
2022/04/16 12:49:55;;;;;;;4.93;2.80;;;17.00;73.10;;;;;;6311937;22;20004;-78
2022/04/16 12:52:23;;;;;;;3.75;2.85;;;17.00;71.50;;;;;;6313925;22;20012;-76
2022/04/16 12:54:49;;;;;;;5.40;3.30;;;17.30;69.60;;;;;;6313500;22;20003;-77
2022/04/16 12:57:15;;;;;;;4.30;2.70;;;17.10;70.00;;;;;;6313304;22;20019;-77
2022/04/16 12:59:40;;;;;;;3.40;2.60;;;17.20;69.10;;;;;;6311913;22;20012;-78
2022/04/16 13:02:06;;;;;;;3.47;2.63;;;17.60;70.00;;;;;;6313733;22;20004;-83
2022/04/16 13:04:33;;;;;;;4.63;2.92;;;17.60;68.40;;;;;;6313582;22;20090;-77
2022/04/16 13:07:02;;;;;;;4.25;2.38;;;17.80;65.30;;;;;;6313603;22;20441;-79
2022/04/16 13:09:27;;;;;;;3.00;2.30;;;17.70;61.40;;;;;;6313806;22;20004;-82
2022/04/16 13:11:53;;;;;;;3.22;2.38;;;17.70;60.20;;;;;;6314667;22;20078;-78
2022/04/16 13:14:19;;;;;;;4.20;2.50;;;18.00;61.00;;;;;;6314727;22;20375;-78
2022/04/16 13:16:45;;;;;;;3.47;2.50;;;18.20;59.50;;;;;;6313904;22;20019;-77
2022/04/16 13:19:15;;;;;;;4.25;2.53;;;17.90;63.00;;;;;;6314349;22;19996;-76
2022/04/16 13:21:41;;;;;;;3.97;3.30;;;18.30;59.50;;;;;;6314214;22;20023;-78
2022/04/16 13:24:11;;;;;;;5.78;3.88;;;18.30;59.10;;;;;;6314273;22;20482;-78
2022/04/16 13:26:37;;;;;;;3.60;2.50;;;18.30;56.30;;;;;;6314040;22;20018;-78
2022/04/16 13:29:03;;;;;;;3.75;2.60;;;18.10;56.90;;;;;;6313350;22;20015;-78
2022/04/16 13:31:28;;;;;;;3.85;2.67;;;18.40;61.40;;;;;;6313366;22;20011;-78
2022/04/16 13:33:54;;;;;;;6.45;2.88;;;18.10;57.50;;;;;;6311552;22;20023;-78
2022/04/16 13:36:20;;;;;;;4.70;3.10;;;18.00;55.50;;;;;;6313471;22;20010;-78
2022/04/16 13:38:45;;;;;;;4.53;3.20;;;18.20;58.00;;;;;;6314238;22;20020;-77
2022/04/16 13:43:55;;;;;;;4.80;2.80;;;18.50;58.90;;;;;;6315225;22;20359;-77
2022/04/16 13:46:21;;;;;;;5.30;3.00;;;18.90;55.00;;;;;;6315226;22;20003;-77
2022/04/16 13:48:46;;;;;;;4.03;3.00;;;19.50;54.50;;;;;;6314798;22;20015;-78
2022/04/16 13:51:12;;;;;;;7.20;2.85;;;19.50;52.20;;;;;;6316051;22;19999;-79
2022/04/16 13:53:38;;;;;;;3.40;2.65;;;20.70;52.50;;;;;;6317286;22;20012;-83
2022/04/16 13:56:04;;;;;;;3.95;2.75;;;21.00;48.60;;;;;;6318682;22;20000;-82
2022/04/16 13:58:29;;;;;;;7.57;3.50;;;22.10;47.70;;;;;;6317103;22;20019;-79
2022/04/16 14:00:55;;;;;;;5.57;3.08;;;22.60;47.50;;;;;;6316608;22;20045;-78
2022/04/16 14:03:21;;;;;;;3.15;2.55;;;22.70;44.80;;;;;;6314447;22;20033;-77
2022/04/16 14:05:47;;;;;;;3.75;2.42;;;22.60;44.30;;;;;;6315608;22;20522;-76
2022/04/16 14:08:14;;;;;;;4.75;2.65;;;22.50;44.90;;;;;;6316093;22;20159;-75
2022/04/16 14:10:41;;;;;;;5.93;2.85;;;22.60;43.60;;;;;;6315669;22;20465;-79
2022/04/16 14:13:08;;;;;;;3.22;2.83;;;22.40;46.30;;;;;;6319221;22;20004;-82
2022/04/16 14:15:34;;;;;;;3.92;2.60;;;22.50;44.80;;;;;;6316445;22;20015;-79
2022/04/16 14:18:00;;;;;;;4.30;2.58;;;23.30;44.00;;;;;;6318806;22;20091;-78
2022/04/16 14:20:26;;;;;;;3.70;2.40;;;22.00;42.60;;;;;;6315233;22;20089;-78
2022/04/16 14:22:51;;;;;;;4.40;2.20;;;21.80;46.20;;;;;;6313555;22;20065;-78
2022/04/16 14:25:17;;;;;;;3.22;2.50;;;22.70;41.50;;;;;;6315003;22;20015;-78
2022/04/16 14:27:44;;;;;;;3.10;2.20;;;23.20;41.10;;;;;;6314642;22;20038;-78
2022/04/16 14:30:10;;;;;;;3.50;2.20;;;22.40;41.00;;;;;;6314975;22;20067;-79
2022/04/16 14:32:37;;;;;;;4.40;2.05;;;23.30;42.10;;;;;;6321037;22;20070;-79
2022/04/16 14:35:15;;;;;;;3.25;2.20;;;23.50;40.00;;;;;;6315233;22;20008;-76
2022/04/16 14:37:40;;;;;;;3.88;2.08;;;23.00;42.00;;;;;;6315772;22;20455;-78
2022/04/16 14:40:06;;;;;;;3.45;2.03;;;22.90;40.00;;;;;;6317295;22;20071;-81
2022/04/16 14:42:33;;;;;;;3.03;1.77;;;22.30;40.70;;;;;;6319213;22;20016;-84
2022/04/16 14:44:59;;;;;;;3.33;2.00;;;23.00;41.10;;;;;;6324604;22;20107;-82
2022/04/16 14:47:24;;;;;;;2.42;1.90;;;23.20;40.20;;;;;;6316807;22;20054;-78
2022/04/16 14:49:50;;;;;;;1.58;1.48;;;22.90;40.00;;;;;;6319276;22;20000;-84
2022/04/16 14:52:16;;;;;;;2.03;1.80;;;23.90;38.50;;;;;;6317268;22;20014;-81
2022/04/16 14:54:41;;;;;;;2.72;2.20;;;24.70;41.10;;;;;;6320332;22;20023;-83
2022/04/16 14:57:07;;;;;;;2.28;2.08;;;23.80;37.90;;;;;;6320157;22;20038;-79
2022/04/16 14:59:32;;;;;;;2.42;2.10;;;23.80;36.10;;;;;;6321082;22;20026;-78
2022/04/16 15:02:00;;;;;;;3.85;1.92;;;23.70;36.70;;;;;;6322464;22;20335;-84
2022/04/16 15:04:26;;;;;;;2.03;1.90;;;24.80;35.90;;;;;;6331388;22;20000;-82
2022/04/16 15:06:51;;;;;;;3.22;2.20;;;24.80;34.10;;;;;;6330637;22;20035;-81
2022/04/16 15:09:26;;;;;;;3.42;2.13;;;24.20;36.40;;;;;;6322912;22;20046;-82
2022/04/16 15:11:52;;;;;;;2.92;2.40;;;24.30;37.30;;;;;;6322773;22;20031;-81
2022/04/16 15:14:17;;;;;;;3.50;2.30;;;24.60;34.40;;;;;;6318755;22;20015;-84
2022/04/16 15:16:43;;;;;;;2.28;2.10;;;24.90;36.70;;;;;;6318695;22;20407;-76
2022/04/16 15:19:08;;;;;;;2.85;2.13;;;25.20;32.90;;;;;;6316956;22;20363;-82
2022/04/16 15:21:34;;;;;;;2.65;2.10;;;25.60;34.20;;;;;;6315138;22;20007;-77
2022/04/16 15:24:00;;;;;;;2.78;2.25;;;26.30;33.80;;;;;;6314733;22;20114;-77
2022/04/16 15:26:25;;;;;;;2.30;2.10;;;26.20;32.20;;;;;;6314812;22;20428;-76
2022/04/16 15:28:51;;;;;;;4.35;3.95;;;27.40;30.90;;;;;;6315547;22;20011;-78
2022/04/16 15:31:19;;;;;;;2.40;2.20;;;28.20;29.20;;;;;;6317303;22;20078;-79
2022/04/16 15:33:45;;;;;;;2.50;2.30;;;28.00;29.20;;;;;;6313762;22;20012;-77
2022/04/16 15:36:11;;;;;;;2.65;1.98;;;27.60;28.80;;;;;;6315962;22;20007;-81
2022/04/16 15:38:36;;;;;;;3.50;1.90;;;27.80;29.10;;;;;;6315807;22;20710;-76
2022/04/16 15:41:02;;;;;;;2.60;2.20;;;26.80;29.10;;;;;;6315040;22;20006;-77
2022/04/16 15:43:28;;;;;;;2.85;2.42;;;27.20;30.10;;;;;;6314459;22;20004;-74
2022/04/16 15:45:53;;;;;;;3.97;2.25;;;26.70;29.90;;;;;;6314301;22;20012;-76
2022/04/16 15:48:19;;;;;;;2.80;2.20;;;26.70;30.20;;;;;;6313642;22;20035;-78
2022/04/16 15:50:44;;;;;;;2.20;2.00;;;25.00;30.50;;;;;;6314682;22;20030;-76
2022/04/16 15:53:10;;;;;;;3.38;1.95;;;25.80;31.80;;;;;;6315837;22;20060;-76
2022/04/16 15:55:36;;;;;;;2.28;2.03;;;25.50;30.50;;;;;;6317709;22;20003;-76
2022/04/16 15:58:02;;;;;;;2.13;1.92;;;25.70;30.80;;;;;;6313602;22;20019;-78
2022/04/16 16:00:27;;;;;;;2.83;2.00;;;26.00;28.90;;;;;;6316043;22;20007;-77
2022/04/16 16:02:53;;;;;;;3.35;2.10;;;25.80;30.10;;;;;;6314542;22;20079;-75
2022/04/16 16:05:19;;;;;;;2.42;2.17;;;25.30;29.10;;;;;;6314730;22;20493;-77
2022/04/16 16:07:45;;;;;;;5.03;2.00;;;26.20;30.00;;;;;;6315335;22;20004;-77
2022/04/16 16:10:13;;;;;;;2.33;2.13;;;26.60;29.30;;;;;;6312627;22;20081;-77
2022/04/16 16:12:43;;;;;;;4.07;2.25;;;26.90;29.80;;;;;;6314545;22;20088;-76
2022/04/16 16:15:09;;;;;;;2.60;2.40;;;27.20;31.30;;;;;;6316834;22;20706;-78
2022/04/16 16:17:35;;;;;;;2.33;2.10;;;27.20;29.20;;;;;;6315371;22;20469;-78
2022/04/16 16:20:05;;;;;;;4.03;2.30;;;26.80;29.10;;;;;;6315339;22;20003;-79
2022/04/16 16:22:30;;;;;;;3.25;2.50;;;27.30;29.80;;;;;;6317137;22;20359;-78
2022/04/16 16:24:57;;;;;;;2.53;2.30;;;27.00;28.90;;;;;;6316164;22;20008;-78
2022/04/16 16:27:23;;;;;;;2.78;2.40;;;26.20;29.60;;;;;;6319754;22;20011;-80
2022/04/16 16:29:52;;;;;;;3.58;2.40;;;26.40;30.60;;;;;;6324212;22;20031;-79
2022/04/16 16:32:18;;;;;;;2.95;2.60;;;25.80;29.40;;;;;;6324349;22;20016;-79
2022/04/16 16:34:44;;;;;;;3.05;2.38;;;24.50;32.40;;;;;;6323774;22;20079;-79
2022/04/16 16:37:10;;;;;;;2.33;2.13;;;24.30;32.00;;;;;;6323794;22;20526;-79
2022/04/16 16:39:38;;;;;;;3.05;2.30;;;23.40;31.40;;;;;;6292523;22;20008;-80
2022/04/16 16:42:04;;;;;;;3.15;2.30;;;22.00;33.50;;;;;;6320231;22;20095;-79
2022/04/16 16:44:31;;;;;;;2.67;2.33;;;21.20;35.40;;;;;;6316306;22;20047;-78
2022/04/16 16:46:56;;;;;;;2.90;2.60;;;20.80;36.80;;;;;;6320214;22;20008;-79
2022/04/16 16:49:22;;;;;;;2.80;2.10;;;21.40;35.90;;;;;;6301055;22;20087;-78
2022/04/16 16:51:48;;;;;;;3.83;2.30;;;21.50;33.30;;;;;;6295532;22;20386;-79
2022/04/16 16:54:14;;;;;;;2.10;1.90;;;21.00;34.80;;;;;;6288834;22;20012;-79
2022/04/16 16:56:40;;;;;;;3.15;1.90;;;21.00;35.80;;;;;;6289410;22;20004;-79
2022/04/16 16:59:06;;;;;;;3.40;2.28;;;20.70;36.00;;;;;;6321903;22;20901;-78
2022/04/16 17:01:36;;;;;;;2.97;2.08;;;19.30;37.20;;;;;;6322599;22;20034;-79
2022/04/16 17:06:48;;;;;;;2.55;1.83;;;16.70;42.50;;;;;;6315497;22;20004;-78
2022/04/16 17:09:17;;;;;;;2.53;1.95;;;15.60;43.70;;;;;;6318359;22;20007;-79